Time;durP1;ratioP1;P1;durP2;ratioP2;P2;SDS_P1;SDS_P2;PMS_P1;PMS_P2;Temp;Humidity;BMP_temperature;BMP_pressure;BME280_temperature;BME280_humidity;BME280_pressure;Samples;Min_cycle;Max_cycle;Signal;HPM_P1;HPM_P2
2022/01/14 00:01:36;;;;;;;23.20;19.50;;;3.90;79.00;;;;;;5118494;28;20565;-44
2022/01/14 00:04:01;;;;;;;23.90;20.87;;;3.90;79.00;;;;;;5118512;28;20191;-44
2022/01/14 00:06:27;;;;;;;25.17;20.63;;;3.90;79.20;;;;;;5118986;28;20642;-44
2022/01/14 00:09:03;;;;;;;25.00;20.47;;;3.80;79.30;;;;;;5117856;28;20458;-44
2022/01/14 00:11:31;;;;;;;26.10;20.27;;;3.80;79.40;;;;;;5118589;28;20187;-43
2022/01/14 00:14:20;;;;;;;25.63;20.60;;;3.80;79.60;;;;;;5119163;28;20426;-44
2022/01/14 00:16:47;;;;;;;27.10;19.90;;;3.70;79.60;;;;;;5104282;28;20471;-44
2022/01/14 00:19:12;;;;;;;26.13;21.30;;;3.70;79.80;;;;;;5100935;28;20418;-44
2022/01/14 00:21:41;;;;;;;31.93;23.27;;;3.60;79.80;;;;;;5119106;28;20424;-44
2022/01/14 00:24:11;;;;;;;27.17;20.40;;;3.60;80.00;;;;;;5100514;28;20444;-44
2022/01/14 00:32:17;;;;;;;27.30;21.63;;;3.50;80.40;;;;;;5118768;28;20518;-44
2022/01/14 00:34:43;;;;;;;34.50;21.77;;;3.50;80.60;;;;;;5118725;28;20470;-44
2022/01/14 00:37:08;;;;;;;25.30;21.13;;;3.40;80.80;;;;;;5118551;28;20429;-44
2022/01/14 00:39:34;;;;;;;26.50;21.30;;;3.40;80.90;;;;;;5118167;28;20589;-44
2022/01/14 00:42:00;;;;;;;26.37;19.30;;;3.40;81.10;;;;;;5118072;28;20219;-44
2022/01/14 00:44:25;;;;;;;24.03;20.00;;;3.30;81.10;;;;;;5117845;28;20207;-44
2022/01/14 00:46:51;;;;;;;24.13;19.80;;;3.30;81.10;;;;;;5117890;28;20215;-43
2022/01/14 00:49:18;;;;;;;25.00;19.67;;;3.30;81.90;;;;;;5118161;28;20203;-44
2022/01/14 00:51:44;;;;;;;24.33;18.97;;;3.20;81.20;;;;;;5118268;28;20176;-42
2022/01/14 00:54:10;;;;;;;25.53;20.00;;;3.20;81.20;;;;;;5118377;28;20410;-44
2022/01/14 00:59:15;;;;;;;24.97;20.10;;;3.10;81.30;;;;;;5117671;28;20410;-44
2022/01/14 01:02:01;;;;;;;26.00;19.97;;;3.10;81.30;;;;;;5117857;28;20421;-44
2022/01/14 01:04:35;;;;;;;27.43;19.87;;;3.10;81.40;;;;;;5117156;28;20869;-44
2022/01/14 01:07:03;;;;;;;25.03;18.07;;;3.00;81.40;;;;;;5118349;28;20426;-44
2022/01/14 01:09:30;;;;;;;25.47;20.23;;;3.00;81.50;;;;;;5117834;28;20457;-44
2022/01/14 01:12:13;;;;;;;25.93;20.00;;;3.00;81.50;;;;;;5117713;28;20436;-44
2022/01/14 01:14:56;;;;;;;23.87;18.43;;;3.00;81.60;;;;;;5100006;28;20422;-44
2022/01/14 01:17:22;;;;;;;27.87;19.00;;;3.00;81.60;;;;;;5117555;28;20424;-44
2022/01/14 01:19:47;;;;;;;26.80;21.17;;;2.90;81.40;;;;;;5118234;28;20414;-44
2022/01/14 01:22:13;;;;;;;24.50;19.40;;;2.90;81.50;;;;;;5117653;28;20265;-44
2022/01/14 01:24:38;;;;;;;25.10;20.33;;;2.90;81.60;;;;;;5117818;28;20554;-44
2022/01/14 01:27:08;;;;;;;26.17;20.67;;;2.90;81.80;;;;;;5117441;28;20231;-43
2022/01/14 01:32:06;;;;;;;21.73;18.43;;;2.80;82.00;;;;;;5117757;28;20765;-44
2022/01/14 01:34:32;;;;;;;24.10;18.47;;;2.80;82.10;;;;;;5117952;28;20433;-44
2022/01/14 01:37:00;;;;;;;24.67;18.80;;;2.80;82.10;;;;;;5117656;28;20415;-44
2022/01/14 01:39:28;;;;;;;23.57;19.03;;;2.80;82.20;;;;;;5117479;28;20758;-44
2022/01/14 01:41:59;;;;;;;25.50;19.63;;;2.80;82.30;;;;;;5118223;28;20422;-45
2022/01/14 01:44:26;;;;;;;23.30;19.50;;;2.70;82.30;;;;;;5118029;28;20458;-45
2022/01/14 01:46:52;;;;;;;25.47;18.60;;;2.70;82.40;;;;;;5118376;28;20418;-45
2022/01/14 01:49:24;;;;;;;23.97;19.40;;;2.70;82.40;;;;;;5117538;28;20735;-45
2022/01/14 01:51:50;;;;;;;22.33;18.43;;;2.70;82.60;;;;;;5117647;28;20398;-45
2022/01/14 01:54:17;;;;;;;27.30;19.60;;;2.60;82.60;;;;;;5117487;28;20422;-45
2022/01/14 01:56:44;;;;;;;25.53;18.67;;;2.60;82.70;;;;;;5117620;28;20417;-45
2022/01/14 01:59:09;;;;;;;22.83;19.67;;;2.60;82.80;;;;;;5116737;28;20422;-45
2022/01/14 02:01:39;;;;;;;24.33;19.70;;;2.60;82.80;;;;;;5117159;28;20486;-48
2022/01/14 02:04:05;;;;;;;25.10;18.50;;;2.60;82.80;;;;;;5117136;28;20427;-45
2022/01/14 02:06:32;;;;;;;24.33;18.67;;;2.60;82.90;;;;;;5117165;28;20466;-44
2022/01/14 02:08:57;;;;;;;24.70;20.33;;;2.50;82.90;;;;;;5117712;28;20176;-44
2022/01/14 02:11:24;;;;;;;23.57;18.50;;;2.50;83.00;;;;;;5082741;28;20460;-45
2022/01/14 02:13:51;;;;;;;24.97;19.60;;;2.50;83.00;;;;;;5117454;28;20561;-44
2022/01/14 02:16:30;;;;;;;27.23;20.30;;;2.40;82.90;;;;;;5119173;28;20403;-44
2022/01/14 02:24:33;;;;;;;25.20;20.87;;;2.40;83.20;;;;;;5121119;28;20482;-44
2022/01/14 02:27:00;;;;;;;24.47;19.40;;;2.40;83.40;;;;;;5120834;28;20526;-44
2022/01/14 02:29:26;;;;;;;25.63;19.50;;;2.30;83.40;;;;;;5120925;28;20441;-44
2022/01/14 02:31:52;;;;;;;25.80;20.30;;;2.30;83.60;;;;;;5120980;28;20410;-44
2022/01/14 02:34:18;;;;;;;27.70;20.73;;;2.30;83.80;;;;;;5120174;28;20444;-44
2022/01/14 02:36:45;;;;;;;22.30;17.23;;;2.20;83.80;;;;;;5120648;28;20519;-44
2022/01/14 02:39:13;;;;;;;24.50;19.40;;;2.20;83.90;;;;;;5120052;28;20430;-44
2022/01/14 02:41:41;;;;;;;24.80;18.80;;;2.20;84.00;;;;;;5119479;28;20687;-44
2022/01/14 02:44:09;;;;;;;25.40;19.63;;;2.20;84.10;;;;;;5120299;28;20433;-44
2022/01/14 02:46:40;;;;;;;23.77;19.63;;;2.20;84.10;;;;;;5120413;28;20421;-43
2022/01/14 02:49:06;;;;;;;25.47;21.27;;;2.20;84.10;;;;;;5120330;28;20528;-44
2022/01/14 02:51:32;;;;;;;25.57;19.20;;;2.10;84.00;;;;;;5120641;28;20565;-44
2022/01/14 02:54:11;;;;;;;25.10;18.90;;;2.10;84.10;;;;;;5120323;28;20184;-44
2022/01/14 02:59:59;;;;;;;27.87;19.50;;;2.10;84.30;;;;;;5119999;28;20470;-44
2022/01/14 03:02:25;;;;;;;25.50;20.23;;;2.00;84.40;;;;;;5120200;28;20688;-44
2022/01/14 03:04:52;;;;;;;25.50;19.23;;;2.00;84.40;;;;;;5119884;28;20500;-44
2022/01/14 03:07:17;;;;;;;26.23;19.10;;;2.00;84.40;;;;;;5119616;28;20504;-44
2022/01/14 03:09:43;;;;;;;26.20;21.07;;;2.00;84.50;;;;;;5119164;28;20639;-44
2022/01/14 03:12:10;;;;;;;23.10;19.00;;;2.00;84.50;;;;;;5119258;28;20168;-43
2022/01/14 03:14:36;;;;;;;25.97;20.37;;;2.00;84.60;;;;;;5119308;28;20570;-44
2022/01/14 03:17:02;;;;;;;27.00;21.00;;;2.00;84.60;;;;;;5119354;28;20484;-44
2022/01/14 03:19:29;;;;;;;28.63;21.33;;;2.00;84.60;;;;;;5119772;28;20498;-44
2022/01/14 03:22:06;;;;;;;31.20;20.80;;;2.00;84.60;;;;;;5120012;28;20425;-44
2022/01/14 03:27:01;;;;;;;27.60;22.20;;;1.90;84.60;;;;;;5119320;28;20504;-44
2022/01/14 03:29:26;;;;;;;25.90;20.60;;;1.90;84.70;;;;;;5119830;28;20415;-44
2022/01/14 03:31:52;;;;;;;23.90;19.50;;;1.90;84.70;;;;;;5119531;28;20176;-44
2022/01/14 03:34:18;;;;;;;26.17;20.13;;;1.90;84.80;;;;;;5119548;28;20426;-43
2022/01/14 03:36:43;;;;;;;26.73;20.53;;;1.90;84.90;;;;;;5119876;28;20196;-44
2022/01/14 03:39:09;;;;;;;24.17;20.00;;;1.90;84.80;;;;;;5101316;28;20414;-44
2022/01/14 03:41:35;;;;;;;24.93;19.50;;;1.90;84.80;;;;;;5119341;28;20223;-44
2022/01/14 03:44:01;;;;;;;27.20;20.43;;;1.90;84.80;;;;;;5119792;28;20183;-44
2022/01/14 03:46:26;;;;;;;28.30;21.80;;;1.80;84.70;;;;;;5101368;28;20218;-44
2022/01/14 03:48:52;;;;;;;26.67;21.00;;;1.80;84.70;;;;;;5119014;28;20176;-44
2022/01/14 03:51:22;;;;;;;26.07;20.63;;;1.80;84.80;;;;;;5101428;28;20617;-44
2022/01/14 03:53:48;;;;;;;24.43;20.20;;;1.80;84.80;;;;;;5118837;28;20171;-44
2022/01/14 03:56:14;;;;;;;27.70;20.20;;;1.80;84.90;;;;;;5119326;28;20430;-44
2022/01/14 03:58:41;;;;;;;27.03;20.20;;;1.80;84.90;;;;;;5118873;28;20262;-44
2022/01/14 04:01:08;;;;;;;26.37;20.60;;;1.80;84.90;;;;;;5119048;28;20429;-44
2022/01/14 04:03:34;;;;;;;25.37;20.07;;;1.80;84.90;;;;;;5118708;28;20688;-44
2022/01/14 04:05:59;;;;;;;26.27;21.03;;;1.80;85.00;;;;;;5118858;28;20426;-44
2022/01/14 04:08:25;;;;;;;24.73;19.67;;;1.70;85.00;;;;;;5119150;28;20414;-44
2022/01/14 04:10:53;;;;;;;26.13;20.40;;;1.70;85.00;;;;;;5118695;28;20251;-44
2022/01/14 04:13:34;;;;;;;23.63;20.37;;;1.70;85.20;;;;;;5118338;28;20595;-44
2022/01/14 04:16:00;;;;;;;26.43;19.40;;;1.70;85.30;;;;;;5117993;28;20709;-44
2022/01/14 04:18:26;;;;;;;25.47;19.03;;;1.70;85.50;;;;;;5118551;28;20499;-44
2022/01/14 04:20:52;;;;;;;22.37;19.90;;;1.70;85.70;;;;;;5118463;28;20465;-44
2022/01/14 04:23:19;;;;;;;24.43;19.60;;;1.60;85.70;;;;;;5117602;28;20201;-44
2022/01/14 04:25:47;;;;;;;24.37;19.50;;;1.60;85.80;;;;;;5117537;28;20460;-44
2022/01/14 04:28:13;;;;;;;23.17;19.13;;;1.60;85.90;;;;;;5117979;28;20422;-44
2022/01/14 04:30:39;;;;;;;24.97;18.93;;;1.60;85.90;;;;;;5117793;28;20526;-44
2022/01/14 04:33:05;;;;;;;25.10;19.00;;;1.60;86.00;;;;;;5117929;28;20180;-44
2022/01/14 04:35:32;;;;;;;25.60;18.17;;;1.60;86.00;;;;;;5117804;28;20546;-44
2022/01/14 04:37:58;;;;;;;23.23;18.80;;;1.60;86.00;;;;;;5118612;28;20408;-44
2022/01/14 04:40:24;;;;;;;26.00;19.07;;;1.60;86.00;;;;;;5118607;28;20425;-44
2022/01/14 04:42:52;;;;;;;21.10;18.10;;;1.60;85.90;;;;;;5099939;28;20462;-41
2022/01/14 04:47:55;;;;;;;19.97;17.40;;;1.60;85.90;;;;;;5117382;28;20535;-43
2022/01/14 04:50:22;;;;;;;19.67;16.73;;;1.60;85.90;;;;;;5117604;28;20521;-43
2022/01/14 04:52:49;;;;;;;20.77;16.87;;;1.50;85.80;;;;;;5117423;28;20422;-44
2022/01/14 04:55:17;;;;;;;24.80;18.37;;;1.50;86.00;;;;;;5116918;28;20465;-42
2022/01/14 04:57:43;;;;;;;21.50;18.20;;;1.50;86.00;;;;;;5115268;28;20430;-43
2022/01/14 05:00:15;;;;;;;22.43;16.77;;;1.50;86.00;;;;;;5115458;28;20713;-43
2022/01/14 05:02:41;;;;;;;21.23;17.93;;;1.50;86.10;;;;;;5115773;28;20417;-47
2022/01/14 05:05:08;;;;;;;21.47;16.30;;;1.40;86.10;;;;;;5116954;28;20424;-46
2022/01/14 05:07:34;;;;;;;24.63;17.73;;;1.40;86.20;;;;;;5116285;28;20716;-46
2022/01/14 05:12:29;;;;;;;24.03;17.60;;;1.50;86.30;;;;;;5116580;28;20424;-47
2022/01/14 05:14:55;;;;;;;22.33;17.20;;;1.50;86.00;;;;;;5116592;28;20444;-46
2022/01/14 05:17:21;;;;;;;21.10;16.93;;;1.50;85.90;;;;;;5116124;28;20422;-46
2022/01/14 05:19:46;;;;;;;20.47;16.47;;;1.60;85.90;;;;;;5114953;28;20272;-46
2022/01/14 05:22:12;;;;;;;21.33;15.60;;;1.60;85.70;;;;;;5115202;28;20180;-46
2022/01/14 05:24:38;;;;;;;20.00;15.80;;;1.60;85.60;;;;;;5114266;28;20414;-46
2022/01/14 05:27:04;;;;;;;18.47;14.90;;;1.60;85.60;;;;;;5113265;28;20232;-46
2022/01/14 05:29:29;;;;;;;19.13;15.17;;;1.60;85.60;;;;;;5112966;28;20241;-46
2022/01/14 05:32:08;;;;;;;18.13;15.30;;;1.60;85.60;;;;;;5112098;28;20516;-46
2022/01/14 05:34:35;;;;;;;18.83;15.13;;;1.50;85.40;;;;;;5112840;28;20241;-47
2022/01/14 05:37:02;;;;;;;19.60;16.70;;;1.50;85.30;;;;;;5112048;28;20426;-47
2022/01/14 05:39:28;;;;;;;23.23;16.20;;;1.50;85.40;;;;;;5094563;28;20406;-46
2022/01/14 05:41:55;;;;;;;21.90;15.80;;;1.50;85.40;;;;;;5114329;28;20421;-46
2022/01/14 05:44:23;;;;;;;19.10;16.50;;;1.50;85.40;;;;;;5116801;28;20184;-47
2022/01/14 05:46:49;;;;;;;19.10;15.70;;;1.50;85.40;;;;;;5114941;28;20422;-46
2022/01/14 05:49:17;;;;;;;21.90;16.17;;;1.50;85.40;;;;;;5095092;28;20441;-46
2022/01/14 05:51:43;;;;;;;20.97;15.90;;;1.50;85.40;;;;;;5115983;28;20843;-46
2022/01/14 05:54:09;;;;;;;21.23;17.10;;;1.50;85.50;;;;;;5117071;28;20843;-47
2022/01/14 05:56:35;;;;;;;20.07;16.53;;;1.40;85.50;;;;;;5115416;28;20406;-46
2022/01/14 05:59:01;;;;;;;19.50;15.23;;;1.40;85.60;;;;;;5115121;28;20184;-46
2022/01/14 06:01:26;;;;;;;22.50;16.60;;;1.40;85.60;;;;;;5116044;28;20176;-46
2022/01/14 06:03:52;;;;;;;17.60;15.03;;;1.40;85.60;;;;;;5117285;28;20176;-46
2022/01/14 06:06:18;;;;;;;21.40;17.73;;;1.40;85.70;;;;;;5117752;28;20244;-47
2022/01/14 06:08:48;;;;;;;20.47;16.57;;;1.40;85.70;;;;;;5115659;28;20188;-47
2022/01/14 06:11:13;;;;;;;21.23;16.40;;;1.40;85.80;;;;;;5113417;28;20686;-46
2022/01/14 06:13:39;;;;;;;19.97;15.47;;;1.40;85.80;;;;;;5112501;28;20426;-46
2022/01/14 06:16:05;;;;;;;21.97;16.80;;;1.40;85.80;;;;;;5113554;28;20556;-47
2022/01/14 06:18:30;;;;;;;20.57;16.53;;;1.40;85.90;;;;;;5113561;28;21201;-46
2022/01/14 06:20:56;;;;;;;17.83;15.60;;;1.30;85.80;;;;;;5116524;28;20243;-47
2022/01/14 06:23:24;;;;;;;23.77;17.00;;;1.30;85.90;;;;;;5116593;28;20172;-46
2022/01/14 06:25:52;;;;;;;20.47;16.70;;;1.30;85.90;;;;;;5115098;28;20320;-46
2022/01/14 06:28:18;;;;;;;22.50;17.10;;;1.30;86.00;;;;;;5116080;28;20422;-48
2022/01/14 06:30:45;;;;;;;19.70;15.07;;;1.30;86.10;;;;;;5117674;28;20481;-47
2022/01/14 06:33:11;;;;;;;21.03;15.50;;;1.30;86.20;;;;;;5118101;28;20177;-47
2022/01/14 06:35:37;;;;;;;23.20;16.77;;;1.30;87.00;;;;;;5117767;28;20441;-47
2022/01/14 06:38:03;;;;;;;20.13;16.20;;;1.30;86.30;;;;;;5117082;28;20179;-47
2022/01/14 06:40:29;;;;;;;20.60;16.63;;;1.30;86.30;;;;;;5117163;28;20176;-47
2022/01/14 06:42:55;;;;;;;20.13;15.60;;;1.30;86.20;;;;;;5111332;28;20442;-48
2022/01/14 06:45:22;;;;;;;24.33;17.77;;;1.30;86.20;;;;;;5094271;28;20507;-47
2022/01/14 06:47:48;;;;;;;22.90;16.50;;;1.20;86.20;;;;;;5091510;28;20199;-47
2022/01/14 06:50:14;;;;;;;21.00;17.00;;;1.20;86.20;;;;;;5093620;28;20473;-47
2022/01/14 06:52:42;;;;;;;22.53;17.33;;;1.20;86.20;;;;;;5096409;28;20411;-47
2022/01/14 06:55:09;;;;;;;19.27;16.00;;;1.20;86.20;;;;;;5095849;28;20829;-47
2022/01/14 06:57:35;;;;;;;21.80;16.73;;;1.20;86.20;;;;;;5094763;28;20419;-47
2022/01/14 07:00:12;;;;;;;20.80;17.43;;;1.20;86.30;;;;;;5094509;28;20806;-49
2022/01/14 07:02:39;;;;;;;20.03;16.20;;;1.20;86.30;;;;;;5092047;28;20616;-47
2022/01/14 07:05:08;;;;;;;21.60;16.83;;;1.20;86.40;;;;;;5092951;28;20429;-47
2022/01/14 07:07:34;;;;;;;20.40;16.80;;;1.20;86.40;;;;;;5108322;28;20632;-47
2022/01/14 07:10:00;;;;;;;22.70;17.87;;;1.20;86.60;;;;;;5118471;27;20465;-47
2022/01/14 07:12:31;;;;;;;18.93;16.07;;;1.30;86.60;;;;;;5133851;27;20524;-47
2022/01/14 07:14:58;;;;;;;17.90;15.30;;;1.30;86.60;;;;;;5098995;27;20424;-47
2022/01/14 07:17:25;;;;;;;20.63;17.13;;;1.30;86.60;;;;;;5133127;27;20433;-47
2022/01/14 07:19:53;;;;;;;20.03;16.40;;;1.30;86.60;;;;;;5135305;27;20803;-46
2022/01/14 07:22:19;;;;;;;20.43;16.33;;;1.30;86.50;;;;;;5135865;27;20432;-47
2022/01/14 07:24:45;;;;;;;20.30;15.83;;;1.40;86.50;;;;;;5137134;27;20493;-47
2022/01/14 07:27:11;;;;;;;17.00;13.97;;;1.40;86.40;;;;;;5139286;27;20587;-47
2022/01/14 07:29:37;;;;;;;20.97;16.07;;;1.40;86.30;;;;;;5119066;27;20175;-47
2022/01/14 07:32:03;;;;;;;18.93;15.87;;;1.50;86.30;;;;;;5118381;27;20417;-47
2022/01/14 07:34:29;;;;;;;20.60;15.43;;;1.50;86.20;;;;;;5135562;27;20698;-47
2022/01/14 07:36:55;;;;;;;17.20;15.10;;;1.50;86.20;;;;;;5116551;27;20676;-47
2022/01/14 07:39:22;;;;;;;20.13;14.93;;;1.60;86.20;;;;;;5135732;27;20179;-47
2022/01/14 07:41:48;;;;;;;19.40;15.97;;;1.60;86.20;;;;;;5136076;27;20179;-47
2022/01/14 07:44:14;;;;;;;19.33;14.93;;;1.70;86.20;;;;;;5135045;27;20428;-47
2022/01/14 07:46:40;;;;;;;17.93;13.53;;;1.80;86.20;;;;;;5133493;27;20843;-46
2022/01/14 07:49:06;;;;;;;16.10;12.67;;;1.90;86.20;;;;;;5133959;27;20474;-46
2022/01/14 07:51:32;;;;;;;17.07;13.90;;;2.10;86.30;;;;;;5136855;27;21006;-46
2022/01/14 07:53:58;;;;;;;17.63;14.10;;;2.40;86.20;;;;;;5139412;27;20176;-46
2022/01/14 07:56:23;;;;;;;14.60;13.10;;;2.70;86.10;;;;;;5137845;27;20179;-46
2022/01/14 07:58:52;;;;;;;14.33;12.83;;;3.00;85.70;;;;;;5138329;27;20875;-46
2022/01/14 08:01:17;;;;;;;16.63;14.77;;;3.40;85.30;;;;;;5137487;27;20668;-46
2022/01/14 08:03:43;;;;;;;18.77;15.27;;;3.80;84.50;;;;;;5137333;27;20477;-46
2022/01/14 08:06:10;;;;;;;16.03;13.10;;;4.40;83.50;;;;;;5136697;27;20270;-46
2022/01/14 08:08:39;;;;;;;17.10;13.90;;;5.00;82.00;;;;;;5118227;27;20191;-46
2022/01/14 08:11:06;;;;;;;16.97;14.90;;;5.80;80.00;;;;;;5099546;27;20491;-46
2022/01/14 08:13:31;;;;;;;16.60;13.97;;;6.50;77.30;;;;;;5094701;28;20441;-46
2022/01/14 08:15:59;;;;;;;15.47;13.00;;;7.40;74.70;;;;;;5096800;28;20801;-47
2022/01/14 08:18:25;;;;;;;15.60;14.00;;;8.20;71.80;;;;;;5096146;28;20211;-46
2022/01/14 08:20:51;;;;;;;16.17;14.57;;;8.80;69.10;;;;;;5095851;28;20846;-46
2022/01/14 08:23:19;;;;;;;15.70;14.00;;;9.40;67.10;;;;;;5096510;28;20184;-46
2022/01/14 08:25:46;;;;;;;14.87;13.37;;;9.80;65.10;;;;;;5096794;28;20411;-47
2022/01/14 08:28:11;;;;;;;14.30;12.90;;;10.20;62.20;;;;;;5095006;28;20828;-47
2022/01/14 08:30:37;;;;;;;16.07;13.73;;;10.50;60.90;;;;;;5093935;28;21170;-47
2022/01/14 08:33:03;;;;;;;14.97;13.47;;;10.80;59.80;;;;;;5094099;28;20181;-46
2022/01/14 08:35:29;;;;;;;15.00;13.33;;;11.20;58.90;;;;;;5093459;28;20227;-46
2022/01/14 08:37:55;;;;;;;16.93;15.23;;;11.60;58.20;;;;;;5076239;28;20500;-46
2022/01/14 08:40:21;;;;;;;15.97;14.40;;;12.20;57.20;;;;;;5093031;28;20425;-46
2022/01/14 08:42:52;;;;;;;17.33;14.97;;;12.90;56.40;;;;;;5094203;28;20826;-46
2022/01/14 08:45:21;;;;;;;17.37;15.70;;;13.80;54.60;;;;;;5092114;28;20480;-46
2022/01/14 08:47:47;;;;;;;16.43;14.83;;;14.70;52.70;;;;;;5091430;28;20422;-47
2022/01/14 08:50:13;;;;;;;16.93;15.33;;;15.70;50.70;;;;;;5092829;28;20477;-47
2022/01/14 08:52:39;;;;;;;16.97;15.27;;;16.70;48.40;;;;;;5092455;28;20437;-47
2022/01/14 08:55:05;;;;;;;16.60;14.97;;;17.50;45.70;;;;;;5095089;28;20251;-47
2022/01/14 08:57:31;;;;;;;15.67;14.23;;;18.30;43.90;;;;;;5077922;28;20180;-47
2022/01/14 08:59:56;;;;;;;16.97;15.37;;;19.10;42.00;;;;;;5096155;28;20446;-47
2022/01/14 09:02:22;;;;;;;15.63;14.17;;;19.90;40.20;;;;;;5096642;28;20193;-46
2022/01/14 09:04:48;;;;;;;16.97;15.30;;;20.50;39.00;;;;;;5094541;28;20188;-47
2022/01/14 09:07:13;;;;;;;16.30;14.80;;;21.10;37.60;;;;;;5092748;28;20175;-48
2022/01/14 09:09:39;;;;;;;16.33;14.87;;;21.80;36.60;;;;;;5092552;28;20431;-48
2022/01/14 09:12:05;;;;;;;17.00;15.33;;;22.40;35.50;;;;;;5093547;28;20181;-48
2022/01/14 09:14:32;;;;;;;16.47;15.17;;;22.80;34.80;;;;;;5093739;28;20422;-48
2022/01/14 09:16:59;;;;;;;17.00;15.30;;;23.40;34.30;;;;;;5093544;28;20438;-48
2022/01/14 09:19:24;;;;;;;15.53;14.10;;;23.80;33.20;;;;;;5075495;28;20461;-48
2022/01/14 09:21:50;;;;;;;14.07;12.63;;;24.40;32.90;;;;;;5093432;28;20476;-48
2022/01/14 09:24:16;;;;;;;12.57;11.57;;;24.90;32.30;;;;;;5093547;28;20426;-48
2022/01/14 09:26:41;;;;;;;11.37;10.43;;;25.40;31.20;;;;;;5096422;28;20624;-48
2022/01/14 09:29:08;;;;;;;11.53;10.53;;;25.80;30.50;;;;;;5097818;28;20233;-48
2022/01/14 09:31:34;;;;;;;6.67;6.17;;;26.20;30.10;;;;;;5097590;28;20213;-49
2022/01/14 09:34:00;;;;;;;6.90;6.30;;;27.00;34.60;;;;;;5079276;28;20696;-48
2022/01/14 09:36:28;;;;;;;7.10;6.40;;;27.70;35.30;;;;;;5097962;28;20400;-48
2022/01/14 09:38:53;;;;;;;7.33;6.63;;;28.40;34.40;;;;;;5099085;28;20461;-48
2022/01/14 09:41:19;;;;;;;8.20;7.50;;;28.90;33.80;;;;;;5097168;28;20419;-49
2022/01/14 09:43:45;;;;;;;7.77;7.10;;;29.60;32.60;;;;;;5098098;28;20178;-49
2022/01/14 09:46:11;;;;;;;8.20;7.60;;;30.10;31.60;;;;;;5098800;28;20611;-48
2022/01/14 09:48:41;;;;;;;9.30;8.50;;;30.60;30.60;;;;;;5100106;28;20502;-48
2022/01/14 09:51:07;;;;;;;9.90;9.10;;;31.00;30.00;;;;;;5100712;28;20326;-49
2022/01/14 09:53:33;;;;;;;10.63;9.73;;;31.50;29.60;;;;;;5099825;28;20433;-49
2022/01/14 09:56:01;;;;;;;10.10;9.20;;;31.90;29.00;;;;;;5098846;28;20463;-49
2022/01/14 09:58:29;;;;;;;10.63;9.83;;;31.90;28.60;;;;;;5097731;28;20424;-49
2022/01/14 10:01:14;;;;;;;9.77;8.97;;;32.30;28.00;;;;;;5099039;28;20440;-48
2022/01/14 10:03:53;;;;;;;8.23;7.60;;;32.80;28.00;;;;;;5099861;28;20732;-48
2022/01/14 10:06:43;;;;;;;9.67;8.87;;;33.30;27.30;;;;;;5111032;28;20417;-49
2022/01/14 10:09:22;;;;;;;9.87;8.87;;;33.70;27.10;;;;;;5119449;28;20416;-49
2022/01/14 10:12:10;;;;;;;8.50;7.80;;;34.20;26.70;;;;;;5102384;28;20382;-49
2022/01/14 10:14:38;;;;;;;8.17;7.57;;;34.50;26.10;;;;;;5101891;28;20829;-49
2022/01/14 10:17:07;;;;;;;8.40;7.73;;;34.60;25.60;;;;;;5119806;28;20813;-48
2022/01/14 10:19:44;;;;;;;7.23;6.63;;;34.80;25.50;;;;;;5117682;28;20399;-50
2022/01/14 10:22:43;;;;;;;8.17;7.57;;;35.00;25.80;;;;;;5101103;28;20402;-40
2022/01/14 10:25:11;;;;;;;8.00;7.30;;;35.20;26.00;;;;;;5099299;28;20404;-41
2022/01/14 10:27:52;;;;;;;8.77;8.07;;;35.60;25.80;;;;;;5109021;28;20960;-42
2022/01/14 10:30:30;;;;;;;8.20;7.60;;;35.50;25.50;;;;;;5118973;28;20451;-41
2022/01/14 10:32:58;;;;;;;7.13;6.43;;;35.50;25.40;;;;;;5118669;28;20438;-41
2022/01/14 10:35:28;;;;;;;7.27;6.67;;;35.50;25.50;;;;;;5101661;28;20426;-41
2022/01/14 10:38:03;;;;;;;7.03;6.43;;;35.30;25.20;;;;;;5117229;28;20387;-41
2022/01/14 10:40:40;;;;;;;7.47;6.87;;;35.20;25.30;;;;;;5116223;28;20466;-41
2022/01/14 10:43:08;;;;;;;8.30;7.50;;;34.90;25.40;;;;;;5114655;28;20420;-40
2022/01/14 10:45:34;;;;;;;7.80;7.00;;;34.70;25.40;;;;;;5116192;28;20430;-40
2022/01/14 10:48:05;;;;;;;11.00;7.23;;;34.30;25.60;;;;;;5117562;28;20386;-40
2022/01/14 10:50:36;;;;;;;8.60;7.90;;;33.80;25.60;;;;;;5118317;28;20715;-41
2022/01/14 10:53:15;;;;;;;7.93;6.93;;;33.50;25.60;;;;;;5118486;28;20417;-42
2022/01/14 10:55:45;;;;;;;7.40;6.80;;;33.40;25.80;;;;;;5117568;28;20391;-40
2022/01/14 10:58:13;;;;;;;10.40;8.43;;;33.40;25.80;;;;;;5118609;28;20396;-42
2022/01/14 11:00:45;;;;;;;9.97;8.70;;;33.40;25.70;;;;;;5100563;28;20444;-41
2022/01/14 11:03:12;;;;;;;11.10;9.83;;;33.40;25.90;;;;;;5118132;28;20425;-44
2022/01/14 11:05:38;;;;;;;8.80;8.00;;;33.40;26.50;;;;;;5116697;28;20476;-43
2022/01/14 11:08:11;;;;;;;8.93;8.20;;;33.30;26.50;;;;;;5099038;28;20422;-43
2022/01/14 11:10:38;;;;;;;9.10;8.40;;;33.40;26.10;;;;;;5116929;27;20419;-40
2022/01/14 11:13:07;;;;;;;9.30;8.60;;;34.00;25.80;;;;;;5116844;28;20409;-41
2022/01/14 11:15:34;;;;;;;8.63;8.03;;;33.80;25.90;;;;;;5099439;28;20435;-41
2022/01/14 11:18:05;;;;;;;7.60;6.70;;;34.40;25.60;;;;;;5116904;28;20706;-42
2022/01/14 11:20:37;;;;;;;6.70;6.20;;;35.20;25.70;;;;;;5098150;28;21066;-39
2022/01/14 11:23:15;;;;;;;7.50;6.90;;;36.20;25.00;;;;;;5098842;28;20789;-42
2022/01/14 11:26:02;;;;;;;8.30;7.70;;;36.50;24.90;;;;;;5100705;28;20429;-42
2022/01/14 11:28:32;;;;;;;7.83;6.83;;;37.40;24.30;;;;;;5115876;28;21001;-42
2022/01/14 11:30:59;;;;;;;6.70;6.10;;;38.00;24.70;;;;;;5098832;28;20916;-42
2022/01/14 11:33:44;;;;;;;6.73;6.23;;;38.60;24.40;;;;;;5116011;28;20450;-41
2022/01/14 11:36:10;;;;;;;6.63;6.13;;;38.60;24.70;;;;;;5100560;28;20420;-41
2022/01/14 11:38:43;;;;;;;6.93;6.23;;;38.90;24.10;;;;;;5096883;28;20430;-41
2022/01/14 11:41:13;;;;;;;6.23;5.63;;;39.50;23.90;;;;;;5116773;28;20868;-42
2022/01/14 11:43:51;;;;;;;5.70;5.30;;;40.00;23.50;;;;;;5118244;28;20478;-42
2022/01/14 11:46:49;;;;;;;5.60;5.20;;;40.10;23.00;;;;;;5117643;28;20403;-43
2022/01/14 11:49:34;;;;;;;6.00;5.60;;;40.40;22.20;;;;;;5062045;28;20447;-42
2022/01/14 11:52:01;;;;;;;6.13;5.70;;;40.80;21.80;;;;;;5099282;28;20440;-42
2022/01/14 11:54:37;;;;;;;6.10;5.70;;;41.20;21.60;;;;;;5116728;28;20812;-42
2022/01/14 11:57:03;;;;;;;6.13;5.63;;;41.70;21.40;;;;;;5100378;28;20862;-43
2022/01/14 11:59:29;;;;;;;5.90;5.50;;;41.80;21.10;;;;;;5118034;28;20430;-44
2022/01/14 12:01:58;;;;;;;6.40;5.90;;;42.50;21.20;;;;;;5117720;28;20452;-40
2022/01/14 12:05:04;;;;;;;5.60;5.10;;;42.30;21.00;;;;;;5098354;28;20278;-41
2022/01/14 12:07:32;;;;;;;5.27;4.87;;;42.40;21.10;;;;;;5094804;28;20433;-42
2022/01/14 12:10:07;;;;;;;5.20;4.80;;;42.60;20.80;;;;;;5114459;28;20433;-44
2022/01/14 12:12:34;;;;;;;3.90;3.60;;;42.90;20.80;;;;;;5114856;28;20483;-40
2022/01/14 12:15:02;;;;;;;3.83;3.53;;;42.90;20.90;;;;;;5115795;28;20777;-42
2022/01/14 12:17:34;;;;;;;3.43;3.13;;;43.30;20.90;;;;;;5114837;28;20435;-41
2022/01/14 12:23:31;;;;;;;3.53;3.23;;;43.60;20.80;;;;;;5115417;28;20399;-44
2022/01/14 12:26:15;;;;;;;2.70;2.50;;;43.70;20.80;;;;;;5113995;28;20769;-42
2022/01/14 12:28:42;;;;;;;2.97;2.77;;;43.40;20.80;;;;;;5113048;28;20415;-44
2022/01/14 12:31:08;;;;;;;2.73;2.53;;;43.50;20.80;;;;;;5113284;28;20475;-42
2022/01/14 12:33:54;;;;;;;2.77;2.57;;;44.00;20.90;;;;;;5116358;28;20412;-42
2022/01/14 12:36:25;;;;;;;2.23;2.03;;;43.20;20.90;;;;;;5115179;28;20428;-42
2022/01/14 12:38:55;;;;;;;2.83;2.50;;;43.70;20.90;;;;;;5114804;28;20780;-42
2022/01/14 12:41:26;;;;;;;2.40;2.20;;;43.70;20.90;;;;;;5116006;28;20423;-42
2022/01/14 12:43:55;;;;;;;2.67;2.47;;;44.00;20.70;;;;;;5115388;28;20468;-43
2022/01/14 12:49:13;;;;;;;2.10;1.90;;;43.90;20.80;;;;;;5095617;28;20520;-42
2022/01/14 12:51:44;;;;;;;2.10;1.80;;;44.40;20.80;;;;;;5096127;28;20762;-43
2022/01/14 12:54:12;;;;;;;2.17;1.90;;;43.90;20.90;;;;;;5095291;28;20425;-42
2022/01/14 12:56:39;;;;;;;2.40;2.20;;;43.40;21.00;;;;;;5095518;28;20540;-44
2022/01/14 12:59:07;;;;;;;2.60;2.40;;;43.40;20.80;;;;;;5079788;28;20419;-43
2022/01/14 13:01:38;;;;;;;2.57;2.37;;;43.90;21.10;;;;;;5113974;28;20424;-42
2022/01/14 13:04:14;;;;;;;2.53;2.27;;;43.80;20.60;;;;;;5114770;28;20420;-44
2022/01/14 13:06:53;;;;;;;2.60;2.40;;;43.70;20.70;;;;;;5098002;28;20437;-41
2022/01/14 13:09:23;;;;;;;3.40;2.90;;;43.90;20.50;;;;;;5095694;28;20452;-42
2022/01/14 13:12:03;;;;;;;3.03;2.80;;;44.00;20.40;;;;;;5113811;28;20764;-46
2022/01/14 13:14:47;;;;;;;2.93;2.73;;;43.80;20.40;;;;;;5096483;28;20757;-43
2022/01/14 13:17:25;;;;;;;3.33;3.00;;;43.90;20.40;;;;;;5114734;28;20676;-43
2022/01/14 13:20:08;;;;;;;3.00;2.80;;;43.90;20.50;;;;;;5095779;28;20494;-41